Time;durP1;ratioP1;P1;durP2;ratioP2;P2;SDS_P1;SDS_P2;PMS_P1;PMS_P2;Temp;Humidity;BMP_temperature;BMP_pressure;BME280_temperature;BME280_humidity;BME280_pressure;Samples;Min_cycle;Max_cycle;Signal;HPM_P1;HPM_P2
2022/03/14 00:00:07;;;;;;;46.97;23.73;;;;;;;-0.71;90.99;100739.53;5060849;28;20036;-88
2022/03/14 00:03:06;;;;;;;46.90;21.98;;;;;;;-0.75;90.95;100745.34;5075682;28;20058;-87
2022/03/14 00:05:51;;;;;;;47.38;23.02;;;;;;;-0.78;92.95;100751.28;5060813;28;20121;-87
2022/03/14 00:08:39;;;;;;;42.72;21.08;;;;;;;-0.78;93.45;100756.44;5075475;28;20036;-88
2022/03/14 00:11:26;;;;;;;40.50;21.65;;;;;;;-0.73;92.23;100748.88;5060854;28;20076;-88
2022/03/14 00:14:11;;;;;;;38.67;19.23;;;;;;;-0.74;90.67;100744.56;5075652;28;20441;-86
2022/03/14 00:16:56;;;;;;;41.35;20.35;;;;;;;-0.82;91.20;100741.69;5075637;28;20054;-86
2022/03/14 00:19:41;;;;;;;46.03;21.92;;;;;;;-0.89;92.88;100747.44;5077350;28;20068;-88
2022/03/14 00:22:26;;;;;;;40.33;19.05;;;;;;;-0.93;92.25;100740.44;5064892;28;20048;-86
2022/03/14 00:25:10;;;;;;;43.78;21.02;;;;;;;-0.96;93.90;100751.50;5050564;28;20044;-86
2022/03/14 00:27:55;;;;;;;38.33;20.02;;;;;;;-0.97;91.90;100754.03;5065440;28;20329;-85
2022/03/14 00:30:40;;;;;;;40.97;19.92;;;;;;;-1.02;92.91;100747.81;5067544;28;20452;-86
2022/03/14 00:33:26;;;;;;;48.53;22.52;;;;;;;-1.08;93.54;100751.03;5068012;28;20063;-86
2022/03/14 00:36:10;;;;;;;47.53;22.55;;;;;;;-1.14;96.38;100752.50;5070739;28;20045;-85
2022/03/14 00:38:55;;;;;;;48.40;23.05;;;;;;;-1.29;100.00;100751.13;5085043;28;20452;-85
2022/03/14 00:41:40;;;;;;;46.70;23.15;;;;;;;-1.25;99.92;100752.13;5070839;28;20356;-85
2022/03/14 00:44:25;;;;;;;48.35;23.30;;;;;;;-1.20;98.23;100753.19;5073546;28;20041;-84
2022/03/14 00:47:09;;;;;;;48.80;23.60;;;;;;;-1.31;99.72;100751.88;5071738;28;20356;-85
2022/03/14 00:49:55;;;;;;;49.75;22.63;;;;;;;-1.33;98.68;100744.13;5074397;28;20043;-84
2022/03/14 00:52:39;;;;;;;45.28;24.13;;;;;;;-1.33;100.00;100756.97;5076611;28;20042;-83
2022/03/14 00:55:24;;;;;;;48.88;22.75;;;;;;;-1.32;99.05;100756.16;5094393;28;20047;-83
2022/03/14 00:58:08;;;;;;;43.40;20.63;;;;;;;-1.30;98.71;100761.34;5078904;28;20040;-84
2022/03/14 01:00:53;;;;;;;48.78;20.70;;;;;;;-1.39;99.96;100750.75;5096884;28;20104;-84
2022/03/14 01:03:38;;;;;;;46.88;21.70;;;;;;;-1.38;98.76;100755.91;5081173;28;20429;-83
2022/03/14 01:06:23;;;;;;;46.30;22.20;;;;;;;-1.42;99.52;100756.63;5082392;28;20055;-83
2022/03/14 01:09:11;;;;;;;46.85;22.02;;;;;;;-1.42;99.85;100767.78;5082758;28;20051;-83
2022/03/14 01:11:56;;;;;;;48.55;22.73;;;;;;;-1.50;100.00;100758.00;5099765;28;20073;-84
2022/03/14 01:14:43;;;;;;;46.90;22.90;;;;;;;-1.51;100.00;100754.56;5071166;28;20037;-83
2022/03/14 01:17:28;;;;;;;43.55;22.08;;;;;;;-1.49;100.00;100765.78;5098624;28;20041;-83
2022/03/14 01:20:13;;;;;;;50.97;22.90;;;;;;;-1.54;100.00;100762.16;5083128;28;20041;-83
2022/03/14 01:22:58;;;;;;;43.85;21.90;;;;;;;-1.51;100.00;100762.28;5071164;28;20071;-83
2022/03/14 01:25:43;;;;;;;48.63;23.60;;;;;;;-1.54;100.00;100756.16;5085205;28;20060;-83
2022/03/14 01:28:28;;;;;;;46.47;22.25;;;;;;;-1.56;100.00;100760.34;5099634;28;20054;-83
2022/03/14 01:31:12;;;;;;;43.47;21.13;;;;;;;-1.55;100.00;100760.41;5084794;28;20049;-83
2022/03/14 01:33:56;;;;;;;51.08;23.58;;;;;;;-1.65;100.00;100755.75;5071801;28;20097;-83
2022/03/14 01:36:41;;;;;;;49.53;24.05;;;;;;;-1.62;100.00;100755.00;5086267;28;20045;-83
2022/03/14 01:39:25;;;;;;;43.05;21.67;;;;;;;-1.61;100.00;100757.59;5086016;28;20024;-83
2022/03/14 01:42:15;;;;;;;46.60;21.73;;;;;;;-1.64;100.00;100770.34;5086068;28;20059;-85
2022/03/14 01:45:01;;;;;;;47.50;21.35;;;;;;;-1.67;100.00;100773.66;5100576;28;20054;-84
2022/03/14 01:47:45;;;;;;;47.00;22.60;;;;;;;-1.80;100.00;100773.97;5100161;28;20043;-85
2022/03/14 01:50:30;;;;;;;47.28;24.08;;;;;;;-1.73;100.00;100777.66;5100410;28;20031;-86
2022/03/14 01:53:16;;;;;;;48.17;22.65;;;;;;;-1.89;100.00;100786.44;5100191;28;20080;-84
2022/03/14 01:56:01;;;;;;;47.58;21.85;;;;;;;-1.86;100.00;100778.88;5085403;28;20186;-85
2022/03/14 01:58:49;;;;;;;44.10;21.65;;;;;;;-1.89;100.00;100784.75;5099828;28;20028;-84
2022/03/14 02:01:34;;;;;;;45.92;21.98;;;;;;;-1.93;100.00;100777.75;5099992;28;20041;-84
2022/03/14 02:04:18;;;;;;;46.47;22.50;;;;;;;-2.02;100.00;100779.06;5085266;28;20025;-84
2022/03/14 02:07:04;;;;;;;47.00;23.02;;;;;;;-1.98;100.00;100776.69;5099228;28;20088;-84
2022/03/14 02:09:48;;;;;;;48.38;23.80;;;;;;;-1.97;100.00;100772.44;5098874;28;20047;-85
2022/03/14 02:12:33;;;;;;;51.63;22.98;;;;;;;-2.02;100.00;100777.38;5098877;28;20101;-84
2022/03/14 02:15:18;;;;;;;52.50;25.13;;;;;;;-2.10;100.00;100775.31;5098632;28;20048;-84
2022/03/14 02:18:03;;;;;;;50.65;23.75;;;;;;;-2.16;100.00;100773.38;5098654;28;20024;-84
2022/03/14 02:20:48;;;;;;;51.28;25.17;;;;;;;-2.16;100.00;100781.94;5098440;28;20088;-85
2022/03/14 02:23:32;;;;;;;52.08;24.60;;;;;;;-2.10;100.00;100777.88;5083810;28;20048;-85
2022/03/14 02:26:18;;;;;;;55.97;25.23;;;;;;;-2.16;100.00;100784.50;5083276;28;20057;-84
2022/03/14 02:29:02;;;;;;;53.80;25.98;;;;;;;-2.18;100.00;100786.16;5098426;28;20041;-84
2022/03/14 02:31:47;;;;;;;52.72;24.50;;;;;;;-2.27;100.00;100777.19;5069270;28;20024;-84
2022/03/14 02:34:32;;;;;;;47.25;23.45;;;;;;;-2.19;100.00;100779.25;5083062;28;20052;-84
2022/03/14 02:37:16;;;;;;;44.15;22.63;;;;;;;-2.21;100.00;100777.41;5083246;28;20028;-84
2022/03/14 02:40:02;;;;;;;46.85;23.63;;;;;;;-2.20;100.00;100787.75;5082069;28;20036;-84
2022/03/14 02:42:47;;;;;;;45.90;23.63;;;;;;;-2.25;100.00;100783.25;5095695;28;20044;-85
2022/03/14 02:45:32;;;;;;;45.53;23.02;;;;;;;-2.27;100.00;100780.63;5079031;28;20068;-84
2022/03/14 02:48:18;;;;;;;51.33;23.08;;;;;;;-2.24;100.00;100793.59;5081215;28;20080;-85
2022/03/14 02:51:03;;;;;;;45.95;23.15;;;;;;;-2.28;100.00;100788.25;5095506;28;20047;-84
2022/03/14 02:53:48;;;;;;;45.20;22.85;;;;;;;-2.31;100.00;100785.56;5095832;28;20064;-84
2022/03/14 02:56:33;;;;;;;47.08;21.52;;;;;;;-2.30;100.00;100789.91;5095566;28;20083;-84
2022/03/14 02:59:18;;;;;;;44.03;21.40;;;;;;;-2.30;100.00;100798.47;5080448;28;20048;-85
2022/03/14 03:02:04;;;;;;;43.92;22.00;;;;;;;-2.28;100.00;100793.38;5080476;28;20047;-84
2022/03/14 03:04:50;;;;;;;37.38;20.08;;;;;;;-2.32;100.00;100796.63;5079856;28;20040;-84
2022/03/14 03:07:37;;;;;;;48.30;23.95;;;;;;;-2.33;100.00;100807.72;5080324;28;20045;-84
2022/03/14 03:10:23;;;;;;;49.05;23.27;;;;;;;-2.37;100.00;100799.91;5080322;28;20055;-84
2022/03/14 03:13:11;;;;;;;47.17;22.48;;;;;;;-2.34;100.00;100809.38;5094170;28;20037;-84
2022/03/14 03:15:55;;;;;;;50.13;22.20;;;;;;;-2.39;100.00;100809.22;5094179;28;20040;-84
2022/03/14 03:18:40;;;;;;;44.47;22.45;;;;;;;-2.39;100.00;100819.47;5079413;28;20041;-84
2022/03/14 03:21:24;;;;;;;39.33;20.17;;;;;;;-2.45;100.00;100813.19;5079145;28;20141;-84
2022/03/14 03:24:09;;;;;;;45.72;21.42;;;;;;;-2.41;100.00;100813.38;5093184;28;20096;-83
2022/03/14 03:26:54;;;;;;;49.30;21.60;;;;;;;-2.47;100.00;100814.81;5093884;28;20048;-85
2022/03/14 03:29:39;;;;;;;44.75;21.77;;;;;;;-2.46;100.00;100809.75;5079094;28;20036;-84
2022/03/14 03:32:23;;;;;;;42.92;20.48;;;;;;;-2.44;100.00;100813.28;5078231;28;20036;-84
2022/03/14 03:35:08;;;;;;;44.05;22.83;;;;;;;-2.49;100.00;100812.19;5079402;28;20041;-84
2022/03/14 03:37:53;;;;;;;43.13;20.80;;;;;;;-2.46;100.00;100814.03;5077984;28;20119;-84
2022/03/14 03:40:37;;;;;;;54.15;24.92;;;;;;;-2.61;100.00;100809.97;5063533;28;20063;-84
2022/03/14 03:43:22;;;;;;;48.80;22.38;;;;;;;-2.50;100.00;100812.09;5079007;28;20045;-84
2022/03/14 03:46:06;;;;;;;51.92;22.42;;;;;;;-2.51;100.00;100810.38;5093293;28;20429;-84
2022/03/14 03:48:50;;;;;;;42.00;22.35;;;;;;;-2.55;100.00;100809.34;5064752;28;20060;-84
2022/03/14 03:51:35;;;;;;;46.88;24.05;;;;;;;-2.54;100.00;100812.78;5079144;28;20047;-84
2022/03/14 03:54:20;;;;;;;51.58;27.67;;;;;;;-2.62;100.00;100812.47;5095079;28;20381;-84
2022/03/14 03:57:06;;;;;;;51.72;25.23;;;;;;;-2.52;100.00;100813.75;5097569;28;20040;-86
2022/03/14 03:59:50;;;;;;;50.30;25.40;;;;;;;-2.47;100.00;100817.38;5097458;28;20048;-84
2022/03/14 04:02:38;;;;;;;48.55;23.58;;;;;;;-2.41;100.00;100823.66;5097813;28;20044;-86
2022/03/14 04:05:25;;;;;;;51.42;25.02;;;;;;;-2.48;100.00;100819.06;5082331;28;20421;-84
2022/03/14 04:08:10;;;;;;;59.30;23.42;;;;;;;-2.46;100.00;100816.59;5082161;28;20102;-85
2022/03/14 04:10:56;;;;;;;49.42;23.40;;;;;;;-2.42;100.00;100824.47;5081686;28;20052;-84
2022/03/14 04:13:40;;;;;;;46.63;22.88;;;;;;;-2.41;100.00;100822.78;5097190;28;20356;-84
2022/03/14 04:16:26;;;;;;;47.78;22.27;;;;;;;-2.41;100.00;100822.78;5082676;28;20037;-86
2022/03/14 04:19:16;;;;;;;53.05;24.02;;;;;;;-2.53;100.00;100825.72;5082944;28;20041;-84
2022/03/14 04:22:01;;;;;;;51.97;23.00;;;;;;;-2.47;100.00;100828.53;5083833;28;20040;-85
2022/03/14 04:24:45;;;;;;;46.75;23.75;;;;;;;-2.51;100.00;100829.19;5052179;28;20060;-85
2022/03/14 04:27:29;;;;;;;51.08;23.85;;;;;;;-2.51;100.00;100820.63;5082642;28;20036;-84
2022/03/14 04:30:16;;;;;;;52.47;23.63;;;;;;;-2.49;100.00;100827.59;5082448;28;20040;-84
2022/03/14 04:33:01;;;;;;;51.97;24.88;;;;;;;-2.55;100.00;100829.88;5082213;28;20047;-84
2022/03/14 04:35:46;;;;;;;56.88;25.08;;;;;;;-2.67;100.00;100832.78;5096617;28;20096;-84
2022/03/14 04:38:32;;;;;;;47.53;24.80;;;;;;;-2.65;100.00;100837.97;5096502;28;20045;-84
2022/03/14 04:41:17;;;;;;;49.25;24.35;;;;;;;-2.68;100.00;100835.28;5067874;28;20045;-84
2022/03/14 04:44:01;;;;;;;49.53;24.42;;;;;;;-2.70;100.00;100832.63;5095903;28;20052;-84
2022/03/14 04:46:46;;;;;;;52.72;24.75;;;;;;;-2.70;100.00;100830.06;5096281;28;20040;-84
2022/03/14 04:49:31;;;;;;;51.20;23.13;;;;;;;-2.64;100.00;100838.03;5096859;28;20056;-84
2022/03/14 04:52:16;;;;;;;53.88;25.10;;;;;;;-2.79;100.00;100837.38;5096525;28;20036;-84
2022/03/14 04:55:00;;;;;;;55.85;24.92;;;;;;;-2.74;100.00;100842.69;5066669;28;20048;-85
2022/03/14 04:57:45;;;;;;;52.83;23.13;;;;;;;-2.74;100.00;100837.56;5081597;28;20068;-84
2022/03/14 05:00:29;;;;;;;52.55;22.73;;;;;;;-2.76;100.00;100836.59;5095161;28;20044;-84
2022/03/14 05:03:14;;;;;;;50.83;24.48;;;;;;;-2.80;100.00;100827.91;5080848;28;20036;-84
2022/03/14 05:05:59;;;;;;;56.55;25.23;;;;;;;-2.76;100.00;100840.09;5095478;28;20455;-86
2022/03/14 05:08:43;;;;;;;54.22;26.20;;;;;;;-2.81;100.00;100836.41;5067412;28;20040;-84
2022/03/14 05:11:28;;;;;;;57.22;24.52;;;;;;;-2.88;100.00;100835.25;5080788;28;20119;-85
2022/03/14 05:14:14;;;;;;;56.67;24.80;;;;;;;-2.70;100.00;100857.41;5067130;28;20045;-83
2022/03/14 05:16:58;;;;;;;55.38;24.10;;;;;;;-2.80;100.00;100850.13;5095244;28;20045;-84
2022/03/14 05:19:43;;;;;;;49.42;24.15;;;;;;;-2.71;100.00;100850.53;5080498;28;20044;-84
2022/03/14 05:22:27;;;;;;;45.25;22.17;;;;;;;-2.74;100.00;100865.78;5080485;28;20044;-85
2022/03/14 05:25:12;;;;;;;52.15;23.75;;;;;;;-2.77;100.00;100858.81;5079864;28;20052;-84
2022/03/14 05:27:57;;;;;;;51.95;23.58;;;;;;;-2.65;100.00;100858.50;5080027;28;20070;-83
2022/03/14 05:30:42;;;;;;;52.63;26.25;;;;;;;-2.64;100.00;100861.13;5066397;28;20048;-85
2022/03/14 05:33:26;;;;;;;53.25;26.13;;;;;;;-2.69;100.00;100856.63;5078355;28;20052;-85
2022/03/14 05:36:10;;;;;;;56.00;26.33;;;;;;;-2.61;100.00;100868.97;5096179;28;20033;-84
2022/03/14 05:38:55;;;;;;;52.58;24.55;;;;;;;-2.48;100.00;100877.22;5096307;28;20098;-84
2022/03/14 05:41:40;;;;;;;52.22;25.80;;;;;;;-2.49;100.00;100886.59;5095987;28;20044;-85
2022/03/14 05:44:25;;;;;;;66.90;32.80;;;;;;;-2.40;100.00;100881.88;5081824;28;20040;-84
2022/03/14 05:47:10;;;;;;;76.30;31.17;;;;;;;-2.27;100.00;100891.00;5096460;28;20044;-84
2022/03/14 05:49:54;;;;;;;53.45;26.60;;;;;;;-2.22;100.00;100892.06;5068834;28;20050;-84
2022/03/14 05:52:41;;;;;;;55.97;27.65;;;;;;;-2.09;100.00;100890.03;5097137;28;20040;-83
2022/03/14 05:55:25;;;;;;;56.95;25.83;;;;;;;-2.08;100.00;100887.53;5083588;28;20036;-85
2022/03/14 05:58:11;;;;;;;60.38;25.98;;;;;;;-1.91;100.00;100891.69;5081145;28;20025;-84
2022/03/14 06:00:57;;;;;;;65.70;30.20;;;;;;;-1.50;100.00;100889.94;5082776;28;20372;-84
2022/03/14 06:03:41;;;;;;;59.83;27.95;;;;;;;-1.10;100.00;100891.56;5080294;28;20044;-78
2022/03/14 06:06:26;;;;;;;79.13;33.97;;;;;;;-0.62;100.00;100891.66;5060909;28;20044;-79
2022/03/14 06:09:10;;;;;;;68.20;30.52;;;;;;;-0.17;100.00;100881.28;5075913;28;20052;-79
2022/03/14 06:11:56;;;;;;;66.65;32.97;;;;;;;0.34;100.00;100899.34;5060966;28;20067;-79
2022/03/14 06:14:40;;;;;;;70.90;35.17;;;;;;;0.84;100.00;100900.13;5075658;28;20094;-79
2022/03/14 06:17:25;;;;;;;70.82;32.58;;;;;;;1.29;96.80;100892.03;5057972;28;20139;-79
2022/03/14 06:20:12;;;;;;;66.57;33.28;;;;;;;1.81;90.75;100893.53;5075564;28;20037;-79
2022/03/14 06:22:56;;;;;;;62.83;30.63;;;;;;;2.30;88.89;100889.66;5060642;28;20032;-76
2022/03/14 06:25:40;;;;;;;67.85;31.00;;;;;;;2.50;80.73;100897.03;5060425;28;20493;-76
2022/03/14 06:28:24;;;;;;;66.95;32.40;;;;;;;2.78;79.61;100915.00;5075327;28;20127;-77
2022/03/14 06:31:10;;;;;;;63.85;31.17;;;;;;;3.10;75.47;100914.88;5060552;28;20049;-77
2022/03/14 06:33:54;;;;;;;65.55;32.78;;;;;;;3.55;76.60;100915.84;5060827;28;20060;-77
2022/03/14 06:36:39;;;;;;;69.75;32.00;;;;;;;4.21;74.15;100918.88;5061581;28;20052;-77
2022/03/14 06:39:24;;;;;;;58.33;30.38;;;;;;;3.94;68.96;100906.28;5076365;28;20182;-79
2022/03/14 06:42:09;;;;;;;60.35;28.35;;;;;;;4.69;69.75;100914.53;5062074;28;20040;-80
2022/03/14 06:44:57;;;;;;;57.95;30.05;;;;;;;5.16;64.44;100912.66;5059467;28;20053;-80
2022/03/14 06:47:41;;;;;;;56.30;28.75;;;;;;;5.57;62.85;100916.69;5061986;28;20048;-80
2022/03/14 06:50:26;;;;;;;62.80;31.33;;;;;;;5.54;60.43;100912.31;5061894;28;20041;-80
2022/03/14 06:53:11;;;;;;;72.28;36.88;;;;;;;5.59;60.24;100912.41;5077326;28;20036;-80
2022/03/14 06:55:55;;;;;;;68.07;32.80;;;;;;;6.23;59.61;100907.06;5047724;28;20036;-80
2022/03/14 06:58:40;;;;;;;62.15;30.85;;;;;;;6.51;56.57;100910.81;5062038;28;20117;-80
2022/03/14 07:01:25;;;;;;;55.78;30.88;;;;;;;6.95;55.48;100908.53;5062392;28;20040;-80
2022/03/14 07:04:09;;;;;;;89.35;39.33;;;;;;;7.18;53.79;100907.84;5061716;28;20041;-80
2022/03/14 07:06:54;;;;;;;96.53;43.20;;;;;;;7.53;52.78;100909.78;5047839;28;20040;-80
2022/03/14 07:09:38;;;;;;;74.63;35.92;;;;;;;7.53;52.15;100914.97;5076811;28;20044;-80
2022/03/14 07:12:24;;;;;;;59.22;29.92;;;;;;;7.77;50.91;100916.81;5047949;28;20066;-81
2022/03/14 07:15:09;;;;;;;66.88;33.08;;;;;;;8.14;50.40;100925.66;5061861;28;20036;-81
2022/03/14 07:17:53;;;;;;;73.97;34.53;;;;;;;8.26;50.13;100930.91;5076614;28;20059;-81
2022/03/14 07:20:39;;;;;;;72.68;35.83;;;;;;;8.16;48.89;100923.94;5076316;28;20407;-81
2022/03/14 07:23:26;;;;;;;58.63;30.90;;;;;;;8.72;46.82;100924.91;5030893;28;20461;-82
2022/03/14 07:26:11;;;;;;;64.35;30.98;;;;;;;8.87;45.61;100925.78;5055318;28;20053;-82
2022/03/14 07:28:55;;;;;;;70.35;33.38;;;;;;;8.78;44.44;100930.13;5055341;28;20044;-82
2022/03/14 07:31:41;;;;;;;60.40;30.48;;;;;;;9.18;45.56;100932.72;5055437;28;20041;-82
2022/03/14 07:34:26;;;;;;;67.18;33.92;;;;;;;9.34;44.38;100927.44;5055095;28;20045;-82
2022/03/14 07:37:10;;;;;;;62.65;35.30;;;;;;;9.49;44.26;100938.72;5056338;28;20049;-82
2022/03/14 07:39:55;;;;;;;56.58;30.00;;;;;;;9.65;43.37;100931.72;5056191;28;20120;-83
2022/03/14 07:42:44;;;;;;;51.38;26.95;;;;;;;9.78;41.33;100933.41;5055558;28;20041;-82
2022/03/14 07:45:29;;;;;;;54.35;27.45;;;;;;;9.39;42.30;100929.16;5041444;28;20041;-83
2022/03/14 07:48:13;;;;;;;53.10;26.85;;;;;;;9.46;41.45;100936.16;5055700;28;20045;-82
2022/03/14 07:50:58;;;;;;;55.72;27.13;;;;;;;9.54;42.06;100932.63;5055247;28;20045;-83
2022/03/14 07:53:42;;;;;;;48.58;24.77;;;;;;;9.98;41.45;100928.09;5055900;28;20045;-83
2022/03/14 07:56:27;;;;;;;58.95;29.35;;;;;;;10.43;40.27;100929.63;5041510;28;20068;-82
2022/03/14 07:59:12;;;;;;;41.20;23.58;;;;;;;10.41;39.01;100930.50;5055673;28;20045;-83
2022/03/14 08:01:56;;;;;;;48.65;23.40;;;;;;;10.38;38.96;100926.16;5062836;28;20040;-83
2022/03/14 08:04:40;;;;;;;57.10;26.50;;;;;;;10.33;39.27;100920.06;5073289;28;20059;-82
2022/03/14 08:07:28;;;;;;;52.42;26.08;;;;;;;10.51;39.50;100921.69;5058837;28;20044;-82
2022/03/14 08:10:16;;;;;;;50.00;24.38;;;;;;;10.89;38.38;100915.31;5075867;28;20044;-83
2022/03/14 08:13:03;;;;;;;51.17;25.55;;;;;;;10.75;36.56;100918.88;5076327;28;20055;-83
2022/03/14 08:15:48;;;;;;;65.25;30.02;;;;;;;10.71;37.45;100917.16;5075757;28;20090;-83
2022/03/14 08:18:32;;;;;;;48.47;22.98;;;;;;;10.88;35.77;100917.03;5075134;28;20044;-82
2022/03/14 08:21:17;;;;;;;50.58;25.23;;;;;;;11.03;35.63;100921.28;5076249;28;20110;-83
2022/03/14 08:24:01;;;;;;;54.63;26.10;;;;;;;11.32;35.10;100920.97;5076736;28;20115;-84
2022/03/14 08:26:46;;;;;;;56.47;28.27;;;;;;;11.47;34.74;100914.69;5066752;28;20044;-83
2022/03/14 08:29:31;;;;;;;41.95;21.08;;;;;;;11.41;33.07;100912.16;5081397;28;20047;-83
2022/03/14 08:32:16;;;;;;;38.92;20.38;;;;;;;11.46;33.83;100915.59;5066520;28;20040;-81
2022/03/14 08:35:07;;;;;;;37.17;19.60;;;;;;;11.60;32.61;100913.69;5086515;28;20065;-83
2022/03/14 08:37:53;;;;;;;31.10;18.10;;;;;;;11.67;31.92;100920.59;5080618;28;20113;-81
2022/03/14 08:40:38;;;;;;;56.55;29.67;;;;;;;11.77;31.51;100918.72;5092030;28;20043;-81
2022/03/14 08:43:23;;;;;;;40.67;21.50;;;;;;;11.87;31.32;100920.38;5098739;28;20047;-80
2022/03/14 08:46:07;;;;;;;32.88;17.98;;;;;;;11.70;31.10;100920.56;5098478;28;20044;-81
2022/03/14 08:48:51;;;;;;;52.13;27.58;;;;;;;11.47;30.97;100922.56;5099287;28;20055;-81
2022/03/14 08:51:37;;;;;;;41.88;23.92;;;;;;;11.68;31.79;100917.06;5099551;28;20066;-81
2022/03/14 08:54:21;;;;;;;31.88;18.60;;;;;;;11.66;30.89;100912.72;5099311;28;20044;-81
2022/03/14 08:57:06;;;;;;;29.75;16.13;;;;;;;11.93;31.17;100917.69;5097811;28;20048;-80
2022/03/14 08:59:50;;;;;;;31.52;17.23;;;;;;;12.22;30.93;100920.78;5068889;28;20109;-80
2022/03/14 09:02:35;;;;;;;32.63;16.73;;;;;;;12.21;30.88;100919.91;5098332;28;20063;-81
2022/03/14 09:05:21;;;;;;;32.17;15.90;;;;;;;12.03;30.07;100922.81;5083310;28;20044;-81
2022/03/14 09:08:05;;;;;;;30.23;15.45;;;;;;;11.95;29.86;100915.00;5083152;28;20107;-81
2022/03/14 09:10:51;;;;;;;27.60;15.93;;;;;;;12.21;29.77;100919.06;5099024;28;20348;-81
2022/03/14 09:13:35;;;;;;;28.95;14.18;;;;;;;12.28;28.33;100913.69;5098892;28;20040;-81
2022/03/14 09:16:20;;;;;;;26.67;13.90;;;;;;;12.32;27.22;100918.00;5098911;28;20105;-80
2022/03/14 09:19:05;;;;;;;24.52;13.13;;;;;;;12.40;27.88;100924.00;5084388;28;20062;-80
2022/03/14 09:21:50;;;;;;;27.67;15.30;;;;;;;12.28;27.21;100913.69;5070044;28;20044;-81
2022/03/14 09:24:36;;;;;;;27.80;14.65;;;;;;;12.40;27.38;100923.16;5069463;28;20138;-81
2022/03/14 09:27:23;;;;;;;32.88;11.73;;;;;;;12.47;26.30;100916.03;5069554;28;20052;-80
2022/03/14 09:30:09;;;;;;;23.90;11.20;;;;;;;12.46;25.73;100904.66;5084027;28;20037;-81
2022/03/14 09:32:55;;;;;;;21.98;10.77;;;;;;;12.55;25.05;100904.53;5083877;28;20036;-80
2022/03/14 09:35:40;;;;;;;20.45;11.55;;;;;;;12.63;26.09;100899.13;5083634;28;20044;-81
2022/03/14 09:38:24;;;;;;;22.50;10.93;;;;;;;12.86;26.10;100910.13;5083632;28;20056;-81
2022/03/14 09:41:09;;;;;;;19.63;10.02;;;;;;;12.96;25.27;100894.19;5098370;28;20348;-81
2022/03/14 09:43:57;;;;;;;19.40;10.70;;;;;;;12.97;24.96;100888.94;5098350;28;20330;-81
2022/03/14 09:46:45;;;;;;;37.08;13.68;;;;;;;12.98;25.43;100897.69;5069709;28;20123;-81
2022/03/14 09:49:31;;;;;;;14.85;9.88;;;;;;;13.09;24.92;100893.94;5083581;28;20051;-81
2022/03/14 09:52:16;;;;;;;24.70;11.82;;;;;;;13.10;24.64;100890.44;5082741;28;20122;-81
2022/03/14 09:55:01;;;;;;;27.25;11.90;;;;;;;13.19;25.11;100886.75;5098701;28;20074;-80
2022/03/14 09:57:47;;;;;;;23.25;11.32;;;;;;;13.19;24.15;100881.50;5098688;28;20055;-81
2022/03/14 10:00:32;;;;;;;22.23;9.80;;;;;;;13.31;24.48;100876.03;5083030;28;20089;-81
2022/03/14 10:03:18;;;;;;;18.27;9.85;;;;;;;13.48;24.57;100880.97;5068838;28;20040;-81
2022/03/14 10:06:03;;;;;;;27.80;15.05;;;;;;;13.56;24.91;100876.41;5098445;28;20044;-81
2022/03/14 10:08:47;;;;;;;22.52;11.55;;;;;;;13.65;24.94;100877.13;5083371;28;20046;-82
2022/03/14 10:11:31;;;;;;;27.27;12.48;;;;;;;13.82;24.75;100859.22;5083020;28;20040;-81
2022/03/14 10:14:19;;;;;;;26.95;12.30;;;;;;;13.73;23.91;100869.94;5082683;28;20120;-81
2022/03/14 10:17:04;;;;;;;39.08;16.83;;;;;;;13.80;24.06;100867.13;5082858;28;20040;-81
2022/03/14 10:19:57;;;;;;;24.85;12.20;;;;;;;13.90;24.44;100880.09;5097934;28;20036;-81
2022/03/14 10:22:41;;;;;;;;;;;;;;;14.16;24.36;100874.25;5069027;28;20054;-81
2022/03/14 10:25:26;;;;;;;29.65;11.38;;;;;;;14.22;24.29;100858.31;5065455;28;19985;-79
2022/03/14 10:28:11;;;;;;;32.10;14.05;;;;;;;14.25;23.89;100868.78;5098031;28;20040;-80
2022/03/14 10:30:57;;;;;;;24.85;10.18;;;;;;;14.29;24.64;100867.78;5082718;28;20044;-81
2022/03/14 10:33:43;;;;;;;22.33;8.88;;;;;;;14.34;23.20;100873.84;5083104;28;20044;-82
2022/03/14 10:36:45;;;;;;;27.70;9.98;;;;;;;14.30;22.89;100866.91;5082834;28;20062;-80
2022/03/14 10:39:31;;;;;;;14.43;7.80;;;;;;;14.30;22.29;100861.63;5068248;28;20420;-81
2022/03/14 10:42:16;;;;;;;14.70;6.85;;;;;;;14.24;22.70;100862.63;5082210;28;20119;-81
2022/03/14 10:45:10;;;;;;;17.20;8.50;;;;;;;14.10;22.52;100869.97;5097391;28;20040;-80
2022/03/14 10:47:57;;;;;;;23.90;7.88;;;;;;;14.08;22.01;100869.16;5097634;28;20044;-80
2022/03/14 10:50:42;;;;;;;27.63;8.32;;;;;;;14.13;21.71;100874.31;5082624;28;20404;-81
2022/03/14 10:53:26;;;;;;;17.73;8.00;;;;;;;14.14;22.62;100883.97;5097318;28;20416;-80
2022/03/14 10:56:11;;;;;;;53.78;11.57;;;;;;;14.17;22.35;100875.97;5097000;28;20040;-80
2022/03/14 10:58:56;;;;;;;22.50;9.60;;;;;;;14.34;22.73;100870.34;5082425;28;20060;-80
2022/03/14 11:01:57;;;;;;;13.60;8.02;;;;;;;14.41;22.05;100875.41;5082462;28;20040;-81
2022/03/14 11:04:50;;;;;;;14.82;8.20;;;;;;;14.48;22.49;100887.53;5067468;28;20125;-82
2022/03/14 11:07:35;;;;;;;16.55;8.90;;;;;;;14.41;22.07;100877.19;5081708;28;20425;-80
2022/03/14 11:10:20;;;;;;;40.33;10.15;;;;;;;14.42;22.31;100866.59;5082356;28;20044;-82
2022/03/14 11:13:12;;;;;;;17.13;9.48;;;;;;;14.44;21.86;100867.44;5081604;28;20417;-80
2022/03/14 11:15:57;;;;;;;31.20;10.55;;;;;;;14.70;22.24;100869.47;5067329;28;20040;-81
2022/03/14 11:18:41;;;;;;;31.83;13.27;;;;;;;14.73;22.07;100856.19;5096862;28;20044;-81
2022/03/14 11:21:27;;;;;;;21.35;11.90;;;;;;;14.74;21.96;100872.88;5096841;28;20419;-81
2022/03/14 11:24:12;;;;;;;20.80;11.07;;;;;;;14.85;21.88;100848.84;5096327;28;20413;-81
2022/03/14 11:26:56;;;;;;;21.85;11.55;;;;;;;14.67;22.05;100861.63;5067343;28;20044;-81
2022/03/14 11:29:42;;;;;;;23.02;10.82;;;;;;;14.85;22.03;100851.50;5096492;28;20039;-80
2022/03/14 11:32:27;;;;;;;34.47;10.90;;;;;;;14.72;21.65;100854.47;5096455;28;20097;-81
2022/03/14 11:35:11;;;;;;;17.10;10.82;;;;;;;14.77;21.84;100856.13;5067734;28;20051;-79
2022/03/14 11:37:57;;;;;;;46.28;14.05;;;;;;;14.84;21.81;100849.78;5096918;28;20123;-79
2022/03/14 11:40:42;;;;;;;18.13;12.00;;;;;;;14.78;21.71;100837.59;5081650;28;20074;-79
2022/03/14 11:43:27;;;;;;;19.35;10.60;;;;;;;14.75;21.95;100847.38;5096509;28;20032;-78
2022/03/14 11:46:12;;;;;;;14.27;9.20;;;;;;;14.79;22.07;100842.00;5081781;28;20040;-78
2022/03/14 11:49:30;;;;;;;15.60;10.07;;;;;;;14.83;22.23;100841.00;5067320;28;20044;-79
2022/03/14 11:52:20;;;;;;;15.57;9.98;;;;;;;14.94;22.87;100835.44;5040396;28;20060;-78
2022/03/14 11:55:20;;;;;;;30.77;16.70;;;;;;;15.01;22.04;100836.13;5081482;28;20040;-78
2022/03/14 11:58:05;;;;;;;17.88;11.52;;;;;;;15.05;22.22;100830.75;5096108;28;20048;-78
2022/03/14 12:00:49;;;;;;;26.13;14.77;;;;;;;15.26;23.53;100831.91;5081382;28;20043;-79
2022/03/14 12:03:36;;;;;;;18.70;10.80;;;;;;;15.21;22.60;100825.91;5081163;28;20035;-78
2022/03/14 12:06:45;;;;;;;18.60;10.55;;;;;;;15.24;22.80;100830.22;5067470;28;20036;-79
2022/03/14 12:09:30;;;;;;;19.48;10.70;;;;;;;15.19;22.90;100818.03;5081161;28;20040;-78
2022/03/14 12:12:14;;;;;;;17.02;10.85;;;;;;;15.25;22.58;100832.84;5096281;28;20040;-78
2022/03/14 12:14:59;;;;;;;14.52;9.20;;;;;;;15.06;22.72;100821.06;5096358;28;20380;-79
2022/03/14 12:17:45;;;;;;;15.57;9.57;;;;;;;14.96;23.18;100823.06;5100002;28;20040;-78
2022/03/14 12:20:29;;;;;;;14.48;9.35;;;;;;;15.03;22.96;100819.38;5100539;28;20048;-78
2022/03/14 12:23:26;;;;;;;15.20;10.05;;;;;;;15.23;22.70;100826.72;5085404;28;20123;-78
2022/03/14 12:26:42;;;;;;;15.43;9.70;;;;;;;15.22;23.15;100819.72;5084708;28;20059;-78
2022/03/14 12:29:34;;;;;;;15.38;9.38;;;;;;;15.35;22.41;100830.78;5084752;28;20048;-78